Terminal Aerodrome Forecast
Issued by NWS

Home | Current Version | Previous Version | Text Only | Print | Product List | Glossary On
Versions: 1 2 3 4 5 6 7 8 9 10 11 12 13 14 15 16 17 18 19 20 21 22 23 24 25 26
000
FTUS46 KOTX 261123
TAFCOE
TAF
KCOE 261123Z 2612/2712 VRB05KT P6SM OVC100
     FM261400 09004KT P6SM -SHRA OVC050
     FM261500 23005KT P6SM -RA SCT015 OVC030
     FM261900 23008G17KT P6SM -SHRA SCT020 BKN050
     FM270300 21011KT P6SM SCT250=

USA.gov is the U.S. government's official web portal to all federal, state and local government web resources and services.